createdAt,value
2022-07-31T00:00:06.500Z,9.50
2022-07-31T00:01:06.487Z,10.20
2022-07-31T00:02:06.488Z,10.90
2022-07-31T00:03:06.515Z,9.80
2022-07-31T00:04:06.482Z,9.80
2022-07-31T00:05:06.458Z,9.90
2022-07-31T00:06:06.445Z,10.60
2022-07-31T00:07:06.595Z,10.10
2022-07-31T00:08:06.429Z,9.30
2022-07-31T00:09:06.434Z,9.20
2022-07-31T00:10:07.433Z,10.40
2022-07-31T00:11:06.544Z,9.40
2022-07-31T00:12:06.383Z,9.80
2022-07-31T00:13:06.386Z,10.10
2022-07-31T00:14:06.379Z,9.70
2022-07-31T00:15:06.382Z,10.20
2022-07-31T00:16:06.365Z,10.20
2022-07-31T00:17:06.624Z,10.00
2022-07-31T00:18:06.326Z,10.50
2022-07-31T00:19:06.320Z,10.50
2022-07-31T00:20:21.800Z,10.60
2022-07-31T00:21:06.297Z,11.80
2022-07-31T00:22:06.368Z,10.90
2022-07-31T00:23:06.288Z,11.60
2022-07-31T00:24:06.260Z,11.40
2022-07-31T00:25:06.289Z,11.20
2022-07-31T00:26:06.245Z,10.50
2022-07-31T00:27:06.647Z,11.30
2022-07-31T00:28:06.253Z,10.60
2022-07-31T00:29:06.211Z,10.40
2022-07-31T00:30:06.195Z,10.20
2022-07-31T00:31:06.194Z,11.10
2022-07-31T00:32:06.172Z,10.40
2022-07-31T00:33:06.182Z,10.30
2022-07-31T00:34:06.155Z,9.80
2022-07-31T00:35:06.144Z,10.20
2022-07-31T00:36:06.170Z,10.00
2022-07-31T00:37:06.568Z,9.80
2022-07-31T00:38:26.219Z,11.10
2022-07-31T00:39:08.108Z,9.70
2022-07-31T00:40:06.095Z,10.10
2022-07-31T00:41:06.106Z,9.30
2022-07-31T00:42:06.074Z,9.50
2022-07-31T00:43:06.088Z,9.80
2022-07-31T00:44:06.064Z,9.00
2022-07-31T00:45:07.057Z,9.60
2022-07-31T00:46:06.065Z,10.20
2022-07-31T00:47:07.171Z,10.60
2022-07-31T00:48:06.026Z,10.30
2022-07-31T00:49:06.050Z,10.30
2022-07-31T00:50:06.004Z,10.70
2022-07-31T00:51:06.020Z,11.00
2022-07-31T00:52:05.994Z,10.70
2022-07-31T00:53:05.997Z,10.00
2022-07-31T00:54:05.963Z,9.00
2022-07-31T00:55:05.963Z,9.70
2022-07-31T00:56:05.944Z,10.10
2022-07-31T00:57:06.268Z,10.20
2022-07-31T00:58:05.977Z,9.20
2022-07-31T00:59:05.920Z,10.70
2022-07-31T01:00:05.898Z,9.90
2022-07-31T01:01:05.913Z,9.60
2022-07-31T01:02:05.883Z,11.10
2022-07-31T01:03:05.876Z,11.70
2022-07-31T01:04:05.879Z,10.70
2022-07-31T01:05:05.866Z,10.50
2022-07-31T01:06:05.844Z,10.90
2022-07-31T01:07:06.191Z,10.90
2022-07-31T01:08:06.826Z,9.60
2022-07-31T01:09:05.837Z,10.00
2022-07-31T01:10:05.809Z,10.20
2022-07-31T01:11:05.807Z,9.50
2022-07-31T01:12:05.797Z,10.00
2022-07-31T01:13:05.779Z,10.00
2022-07-31T01:14:05.762Z,9.00
2022-07-31T01:15:05.806Z,9.50
2022-07-31T01:16:05.746Z,10.50
2022-07-31T01:17:05.989Z,10.20
2022-07-31T01:18:05.723Z,10.10
2022-07-31T01:19:05.717Z,9.10
2022-07-31T01:20:05.715Z,11.60
2022-07-31T01:21:05.709Z,10.50
2022-07-31T01:22:05.752Z,11.10
2022-07-31T01:23:06.679Z,9.10
2022-07-31T01:24:05.706Z,9.20
2022-07-31T01:25:05.663Z,9.30
2022-07-31T01:26:05.649Z,10.20
2022-07-31T01:27:05.970Z,10.80
2022-07-31T01:28:05.626Z,9.20
2022-07-31T01:29:06.637Z,9.40
2022-07-31T01:30:05.628Z,10.60
2022-07-31T01:31:25.550Z,10.00
2022-07-31T01:32:06.592Z,9.90
2022-07-31T01:33:05.598Z,9.30
2022-07-31T01:34:05.574Z,8.90
2022-07-31T01:35:05.579Z,8.70
2022-07-31T01:36:05.552Z,9.60
2022-07-31T01:37:05.952Z,9.90
2022-07-31T01:38:05.560Z,9.70
2022-07-31T01:39:05.521Z,9.70
2022-07-31T01:40:05.521Z,9.50
2022-07-31T01:41:05.502Z,9.20
2022-07-31T01:42:05.886Z,8.80
2022-07-31T01:43:05.471Z,8.70
2022-07-31T01:44:05.534Z,8.60
2022-07-31T01:45:05.478Z,10.50
2022-07-31T01:46:05.450Z,9.50
2022-07-31T01:47:05.771Z,9.20
2022-07-31T01:48:05.465Z,8.50
2022-07-31T01:49:05.467Z,8.70
2022-07-31T01:50:05.440Z,10.10
2022-07-31T01:51:05.397Z,8.70
2022-07-31T01:52:05.635Z,8.80
2022-07-31T01:53:05.417Z,9.60
2022-07-31T01:54:05.386Z,8.60
2022-07-31T01:55:05.363Z,9.00
2022-07-31T01:56:05.351Z,9.40
2022-07-31T01:57:05.344Z,9.50
2022-07-31T01:58:05.339Z,10.00
2022-07-31T01:59:05.343Z,8.70
2022-07-31T02:00:06.344Z,9.90
2022-07-31T02:01:06.368Z,10.20
2022-07-31T02:02:05.878Z,9.50
2022-07-31T02:03:09.851Z,9.20
2022-07-31T02:04:05.266Z,8.70
2022-07-31T02:05:05.293Z,9.40
2022-07-31T02:06:05.262Z,9.10
2022-07-31T02:07:05.240Z,9.00
2022-07-31T02:08:05.241Z,9.10
2022-07-31T02:09:05.228Z,9.80
2022-07-31T02:10:05.263Z,9.10
2022-07-31T02:11:05.198Z,9.40
2022-07-31T02:12:09.387Z,8.70
2022-07-31T02:13:05.173Z,10.80
2022-07-31T02:14:05.171Z,10.40
2022-07-31T02:15:05.149Z,9.90
2022-07-31T02:16:05.165Z,10.90
2022-07-31T02:17:05.143Z,12.00
2022-07-31T02:18:05.118Z,11.30
2022-07-31T02:19:05.110Z,11.60
2022-07-31T02:20:05.113Z,11.50
2022-07-31T02:21:05.097Z,13.20
2022-07-31T02:22:05.574Z,11.70
2022-07-31T02:23:05.088Z,12.70
2022-07-31T02:24:05.060Z,11.30
2022-07-31T02:25:05.062Z,11.10
2022-07-31T02:26:05.045Z,10.80
2022-07-31T02:27:05.032Z,10.50
2022-07-31T02:28:06.036Z,10.90
2022-07-31T02:29:05.010Z,10.60
2022-07-31T02:30:05.000Z,9.60
2022-07-31T02:31:04.987Z,9.90
2022-07-31T02:32:04.984Z,10.30
2022-07-31T02:33:04.973Z,11.00
2022-07-31T02:34:04.983Z,9.70
2022-07-31T02:35:04.986Z,11.00
2022-07-31T02:36:04.951Z,10.40
2022-07-31T02:37:04.949Z,10.10
2022-07-31T02:38:04.930Z,9.60
2022-07-31T02:39:04.967Z,10.20
2022-07-31T02:40:04.912Z,11.10
2022-07-31T02:41:05.902Z,11.80
2022-07-31T02:42:05.164Z,11.60
2022-07-31T02:43:04.877Z,11.50
2022-07-31T02:44:04.880Z,11.80
2022-07-31T02:45:04.875Z,12.40
2022-07-31T02:46:04.842Z,11.50
2022-07-31T02:47:04.837Z,11.80
2022-07-31T02:48:04.824Z,11.30
2022-07-31T02:49:04.874Z,11.30
2022-07-31T02:50:04.824Z,10.90
2022-07-31T02:51:04.807Z,10.70
2022-07-31T02:52:05.289Z,10.30
2022-07-31T02:53:04.779Z,10.80
2022-07-31T02:54:04.756Z,10.50
2022-07-31T02:55:04.774Z,10.40
2022-07-31T02:56:04.836Z,11.50
2022-07-31T02:57:04.732Z,11.60
2022-07-31T02:58:04.727Z,10.50
2022-07-31T02:59:04.719Z,11.50
2022-07-31T03:00:04.728Z,10.70
2022-07-31T03:01:04.771Z,9.50
2022-07-31T03:02:05.123Z,9.30
2022-07-31T03:03:04.685Z,9.60
2022-07-31T03:04:04.673Z,10.30
2022-07-31T03:05:04.687Z,10.40
2022-07-31T03:06:04.637Z,9.40
2022-07-31T03:07:04.633Z,10.30
2022-07-31T03:08:04.639Z,9.20
2022-07-31T03:09:04.621Z,10.00
2022-07-31T03:10:04.595Z,10.20
2022-07-31T03:11:04.610Z,10.30
2022-07-31T03:12:05.116Z,10.80
2022-07-31T03:13:04.580Z,11.00
2022-07-31T03:14:04.568Z,9.90
2022-07-31T03:15:04.571Z,10.70
2022-07-31T03:16:04.602Z,10.90
2022-07-31T03:17:04.550Z,10.50
2022-07-31T03:18:08.486Z,9.80
2022-07-31T03:19:05.519Z,10.90
2022-07-31T03:20:04.542Z,10.00
2022-07-31T03:21:04.501Z,10.30
2022-07-31T03:22:04.924Z,9.80
2022-07-31T03:23:04.470Z,11.00
2022-07-31T03:24:04.474Z,11.20
2022-07-31T03:25:04.485Z,11.50
2022-07-31T03:26:04.451Z,12.10
2022-07-31T03:27:04.445Z,11.30
2022-07-31T03:28:04.429Z,11.80
2022-07-31T03:29:04.428Z,11.60
2022-07-31T03:30:05.431Z,12.20
2022-07-31T03:31:04.402Z,11.90
2022-07-31T03:32:04.773Z,11.90
2022-07-31T03:33:04.380Z,12.50
2022-07-31T03:34:04.378Z,11.00
2022-07-31T03:35:04.357Z,13.50
2022-07-31T03:36:04.372Z,11.20
2022-07-31T03:37:04.345Z,12.40
2022-07-31T03:38:40.617Z,13.00
2022-07-31T03:39:05.322Z,13.80
2022-07-31T03:40:04.309Z,12.90
2022-07-31T03:41:04.300Z,11.30
2022-07-31T03:42:04.715Z,11.10
2022-07-31T03:43:04.319Z,13.60
2022-07-31T03:44:04.273Z,12.20
2022-07-31T03:45:04.253Z,14.50
2022-07-31T03:46:04.247Z,13.30
2022-07-31T03:47:04.244Z,13.00
2022-07-31T03:48:04.238Z,11.40
2022-07-31T03:49:04.285Z,11.60
2022-07-31T03:50:04.214Z,12.70
2022-07-31T03:51:04.207Z,11.40
2022-07-31T03:52:08.592Z,11.20
2022-07-31T03:53:06.177Z,11.50
2022-07-31T03:54:04.203Z,10.60
2022-07-31T03:55:04.151Z,11.20
2022-07-31T03:56:04.177Z,11.10
2022-07-31T03:57:04.143Z,11.10
2022-07-31T03:58:04.135Z,12.90
2022-07-31T03:59:04.105Z,12.90
2022-07-31T04:00:04.113Z,11.50
2022-07-31T04:01:04.682Z,12.30
2022-07-31T04:02:06.003Z,11.50
2022-07-31T04:03:04.080Z,12.40
2022-07-31T04:04:04.075Z,11.70
2022-07-31T04:05:06.845Z,12.30
2022-07-31T04:06:06.069Z,11.60
2022-07-31T04:07:04.107Z,11.50
2022-07-31T04:08:04.035Z,11.00
2022-07-31T04:09:15.600Z,11.70
2022-07-31T04:10:05.016Z,11.90
2022-07-31T04:11:04.009Z,12.70
2022-07-31T04:12:04.285Z,12.40
2022-07-31T04:13:03.989Z,12.00
2022-07-31T04:14:03.969Z,11.60
2022-07-31T04:15:03.955Z,11.80
2022-07-31T04:16:03.946Z,12.10
2022-07-31T04:17:04.959Z,11.40
2022-07-31T04:18:03.944Z,10.90
2022-07-31T04:19:03.936Z,10.40
2022-07-31T04:20:05.525Z,10.90
2022-07-31T04:21:03.906Z,10.90
2022-07-31T04:22:04.254Z,11.10
2022-07-31T04:23:03.880Z,11.40
2022-07-31T04:24:03.886Z,11.00
2022-07-31T04:25:03.874Z,11.60
2022-07-31T04:26:03.860Z,11.00
2022-07-31T04:27:03.854Z,11.80
2022-07-31T04:28:03.847Z,10.80
2022-07-31T04:29:03.820Z,10.80
2022-07-31T04:30:03.811Z,11.30
2022-07-31T04:31:03.795Z,10.70
2022-07-31T04:32:04.041Z,10.70
2022-07-31T04:33:03.813Z,11.50
2022-07-31T04:34:03.762Z,12.10
2022-07-31T04:35:03.762Z,12.00
2022-07-31T04:36:03.741Z,11.50
2022-07-31T04:37:03.745Z,11.60
2022-07-31T04:38:03.737Z,11.70
2022-07-31T04:39:03.737Z,12.50
2022-07-31T04:40:03.708Z,11.10
2022-07-31T04:41:03.706Z,11.10
2022-07-31T04:42:03.885Z,11.20
2022-07-31T04:43:03.705Z,11.50
2022-07-31T04:44:03.758Z,11.00
2022-07-31T04:45:03.665Z,10.80
2022-07-31T04:46:03.665Z,11.00
2022-07-31T04:47:04.646Z,10.60
2022-07-31T04:48:03.634Z,10.60
2022-07-31T04:49:03.736Z,9.80
2022-07-31T04:50:03.627Z,10.60
2022-07-31T04:51:03.602Z,10.50
2022-07-31T04:52:03.810Z,10.20
2022-07-31T04:53:03.577Z,9.70
2022-07-31T04:54:03.586Z,10.00
2022-07-31T04:55:03.589Z,9.80
2022-07-31T04:56:03.549Z,10.90
2022-07-31T04:57:03.540Z,10.80
2022-07-31T04:58:03.544Z,9.50
2022-07-31T04:59:03.521Z,10.20
2022-07-31T05:00:03.542Z,10.40
2022-07-31T05:01:03.528Z,10.60
2022-07-31T05:02:03.966Z,9.40
2022-07-31T05:03:03.493Z,9.50
2022-07-31T05:04:03.483Z,9.40
2022-07-31T05:05:03.460Z,9.20
2022-07-31T05:06:03.457Z,8.80
2022-07-31T05:07:03.455Z,9.30
2022-07-31T05:08:03.436Z,9.30
2022-07-31T05:09:08.397Z,9.00
2022-07-31T05:10:04.431Z,8.40
2022-07-31T05:11:03.397Z,7.60
2022-07-31T05:12:03.694Z,8.10
2022-07-31T05:13:03.385Z,7.10
2022-07-31T05:14:03.369Z,6.70
2022-07-31T05:15:03.365Z,7.40
2022-07-31T05:16:03.359Z,7.30
2022-07-31T05:17:03.361Z,7.50
2022-07-31T05:18:03.340Z,7.80
2022-07-31T05:19:03.329Z,7.30
2022-07-31T05:20:03.337Z,7.40
2022-07-31T05:21:03.314Z,6.50
2022-07-31T05:22:03.295Z,6.70
2022-07-31T05:23:06.409Z,7.40
2022-07-31T05:24:03.295Z,6.50
2022-07-31T05:25:03.292Z,7.00
2022-07-31T05:26:03.256Z,6.80
2022-07-31T05:27:03.253Z,7.30
2022-07-31T05:28:03.241Z,7.10
2022-07-31T05:29:04.297Z,6.40
2022-07-31T05:30:03.243Z,6.50
2022-07-31T05:31:03.230Z,6.90
2022-07-31T05:32:03.209Z,8.40
2022-07-31T05:33:03.207Z,6.90
2022-07-31T05:34:03.181Z,6.60
2022-07-31T05:35:03.210Z,6.90
2022-07-31T05:36:03.196Z,6.80
2022-07-31T05:37:03.229Z,6.90
2022-07-31T05:38:03.206Z,7.60
2022-07-31T05:39:03.158Z,7.00
2022-07-31T05:40:03.212Z,6.90
2022-07-31T05:41:03.220Z,7.10
2022-07-31T05:42:03.384Z,7.10
2022-07-31T05:43:03.113Z,6.60
2022-07-31T05:44:03.180Z,7.20
2022-07-31T05:45:03.091Z,7.80
2022-07-31T05:46:03.091Z,6.80
2022-07-31T05:47:03.250Z,7.40
2022-07-31T05:48:03.076Z,7.30
2022-07-31T05:49:03.170Z,7.20
2022-07-31T05:50:03.122Z,6.80
2022-07-31T05:51:05.602Z,9.60
2022-07-31T05:52:03.284Z,6.60
2022-07-31T05:53:03.135Z,6.80
2022-07-31T05:54:03.009Z,7.00
2022-07-31T05:55:02.998Z,7.30
2022-07-31T05:56:03.110Z,6.90
2022-07-31T05:57:02.971Z,9.40
2022-07-31T05:58:02.973Z,7.00
2022-07-31T05:59:02.973Z,7.40
2022-07-31T06:00:03.964Z,6.80
2022-07-31T06:01:02.950Z,7.40
2022-07-31T06:02:03.244Z,7.20
2022-07-31T06:03:03.062Z,7.30
2022-07-31T06:04:02.919Z,7.90
2022-07-31T06:05:02.904Z,8.00
2022-07-31T06:06:02.972Z,7.40
2022-07-31T06:07:02.883Z,7.70
2022-07-31T06:08:02.890Z,7.40
2022-07-31T06:09:04.721Z,7.90
2022-07-31T06:10:03.885Z,8.20
2022-07-31T06:11:02.980Z,8.40
2022-07-31T06:12:03.049Z,8.50
2022-07-31T06:13:02.836Z,7.40
2022-07-31T06:14:02.814Z,8.20
2022-07-31T06:15:02.806Z,8.50
2022-07-31T06:16:03.814Z,8.00
2022-07-31T06:17:02.811Z,7.70
2022-07-31T06:18:02.789Z,8.80
2022-07-31T06:19:02.761Z,8.00
2022-07-31T06:20:02.795Z,7.90
2022-07-31T06:21:34.682Z,8.30
2022-07-31T06:22:02.976Z,7.90
2022-07-31T06:23:02.749Z,7.50
2022-07-31T06:24:03.717Z,8.10
2022-07-31T06:25:02.706Z,7.40
2022-07-31T06:26:02.719Z,8.50
2022-07-31T06:27:02.707Z,7.70
2022-07-31T06:28:04.167Z,9.50
2022-07-31T06:29:03.677Z,8.40
2022-07-31T06:30:02.662Z,8.70
2022-07-31T06:31:02.665Z,8.00
2022-07-31T06:32:02.889Z,8.70
2022-07-31T06:33:08.517Z,7.90
2022-07-31T06:34:03.633Z,8.10
2022-07-31T06:35:02.623Z,7.70
2022-07-31T06:36:02.606Z,8.20
2022-07-31T06:37:02.587Z,7.40
2022-07-31T06:38:03.598Z,8.40
2022-07-31T06:39:02.591Z,8.00
2022-07-31T06:40:02.603Z,8.20
2022-07-31T06:41:02.558Z,8.20
2022-07-31T06:42:02.952Z,8.30
2022-07-31T06:43:06.592Z,8.20
2022-07-31T06:44:03.542Z,7.40
2022-07-31T06:45:02.551Z,7.90
2022-07-31T06:46:02.512Z,8.60
2022-07-31T06:47:02.518Z,8.20
2022-07-31T06:48:02.484Z,8.20
2022-07-31T06:49:05.626Z,7.70
2022-07-31T06:50:04.467Z,7.70
2022-07-31T06:51:29.859Z,7.90
2022-07-31T06:52:05.262Z,8.20
2022-07-31T06:53:02.441Z,8.70
2022-07-31T06:54:02.437Z,7.50
2022-07-31T06:55:02.435Z,7.80
2022-07-31T06:56:02.414Z,8.80
2022-07-31T06:57:02.395Z,8.40
2022-07-31T06:58:02.393Z,8.00
2022-07-31T06:59:02.424Z,7.70
2022-07-31T07:00:07.260Z,7.80
2022-07-31T07:01:04.393Z,7.50
2022-07-31T07:02:02.703Z,7.90
2022-07-31T07:03:02.334Z,7.70
2022-07-31T07:04:02.331Z,8.60
2022-07-31T07:05:05.984Z,8.50
2022-07-31T07:06:02.306Z,8.20
2022-07-31T07:07:02.283Z,8.40
2022-07-31T07:08:02.288Z,7.90
2022-07-31T07:09:02.308Z,7.60
2022-07-31T07:10:02.278Z,7.70
2022-07-31T07:11:02.254Z,8.40
2022-07-31T07:12:02.305Z,7.70
2022-07-31T07:13:02.232Z,7.60
2022-07-31T07:14:02.236Z,7.70
2022-07-31T07:15:02.223Z,8.60
2022-07-31T07:16:02.218Z,7.30
2022-07-31T07:17:02.201Z,7.20
2022-07-31T07:18:02.186Z,7.10
2022-07-31T07:19:02.177Z,7.30
2022-07-31T07:20:02.175Z,7.20
2022-07-31T07:21:02.169Z,7.00
2022-07-31T07:22:02.515Z,7.50
2022-07-31T07:23:02.139Z,7.70
2022-07-31T07:24:02.143Z,7.30
2022-07-31T07:25:02.141Z,7.30
2022-07-31T07:26:02.099Z,7.30
2022-07-31T07:27:03.103Z,7.00
2022-07-31T07:28:02.111Z,6.80
2022-07-31T07:29:02.077Z,6.70
2022-07-31T07:30:02.080Z,6.60
2022-07-31T07:31:02.061Z,6.50
2022-07-31T07:32:02.335Z,6.20
2022-07-31T07:33:02.060Z,6.10
2022-07-31T07:34:02.045Z,6.30
2022-07-31T07:35:02.026Z,5.90
2022-07-31T07:36:02.002Z,6.20
2022-07-31T07:37:02.025Z,6.10
2022-07-31T07:38:01.983Z,6.00
2022-07-31T07:39:01.995Z,6.10
2022-07-31T07:40:03.855Z,6.10
2022-07-31T07:41:01.962Z,6.90
2022-07-31T07:42:02.349Z,5.70
2022-07-31T07:43:03.272Z,6.40
2022-07-31T07:44:02.932Z,5.60
2022-07-31T07:45:02.786Z,5.90
2022-07-31T07:46:02.911Z,5.30
2022-07-31T07:47:01.903Z,5.50
2022-07-31T07:48:07.057Z,5.70
2022-07-31T07:49:01.946Z,5.90
2022-07-31T07:50:01.891Z,6.00
2022-07-31T07:51:01.863Z,8.90
2022-07-31T07:52:01.872Z,5.60
2022-07-31T07:53:01.875Z,6.00
2022-07-31T07:54:01.835Z,5.50
2022-07-31T07:55:01.831Z,5.70
2022-07-31T07:56:01.807Z,4.90
2022-07-31T07:57:01.849Z,5.30
2022-07-31T07:58:01.802Z,8.30
2022-07-31T07:59:01.788Z,7.00
2022-07-31T08:00:01.777Z,6.10
2022-07-31T08:01:01.875Z,5.80
2022-07-31T08:02:02.163Z,5.90
2022-07-31T08:03:46.840Z,5.80
2022-07-31T08:04:01.749Z,6.10
2022-07-31T08:05:01.735Z,7.20
2022-07-31T08:06:01.720Z,5.50
2022-07-31T08:07:01.724Z,6.10
2022-07-31T08:08:01.712Z,5.50
2022-07-31T08:09:01.709Z,5.80
2022-07-31T08:10:01.683Z,5.50
2022-07-31T08:11:01.671Z,6.00
2022-07-31T08:12:01.883Z,5.70
2022-07-31T08:13:01.657Z,5.40
2022-07-31T08:14:01.638Z,5.40
2022-07-31T08:15:01.629Z,6.00
2022-07-31T08:16:01.624Z,5.80
2022-07-31T08:17:01.638Z,9.40
2022-07-31T08:18:01.610Z,5.80
2022-07-31T08:19:01.597Z,5.40
2022-07-31T08:20:01.588Z,5.60
2022-07-31T08:21:01.577Z,5.80
2022-07-31T08:22:02.012Z,5.80
2022-07-31T08:23:01.558Z,7.20
2022-07-31T08:24:01.546Z,5.50
2022-07-31T08:25:05.414Z,5.90
2022-07-31T08:26:01.570Z,6.20
2022-07-31T08:27:01.528Z,5.70
2022-07-31T08:28:01.531Z,5.60
2022-07-31T08:29:05.060Z,5.40
2022-07-31T08:30:02.511Z,5.60
2022-07-31T08:31:01.506Z,5.80
2022-07-31T08:32:01.883Z,7.60
2022-07-31T08:33:01.465Z,6.10
2022-07-31T08:34:01.461Z,5.80
2022-07-31T08:35:01.449Z,5.60
2022-07-31T08:36:01.439Z,6.70
2022-07-31T08:37:52.205Z,5.20
2022-07-31T08:38:04.709Z,5.30
2022-07-31T08:39:01.397Z,5.20
2022-07-31T08:40:01.402Z,7.00
2022-07-31T08:41:01.384Z,5.10
2022-07-31T08:42:01.660Z,6.20
2022-07-31T08:43:01.674Z,5.20
2022-07-31T08:44:04.420Z,5.60
2022-07-31T08:45:02.346Z,5.30
2022-07-31T08:46:01.346Z,6.50
2022-07-31T08:47:01.350Z,6.90
2022-07-31T08:48:01.347Z,5.30
2022-07-31T08:49:01.408Z,4.90
2022-07-31T08:50:01.317Z,5.20
2022-07-31T08:51:01.297Z,5.60
2022-07-31T08:52:01.390Z,6.60
2022-07-31T08:53:01.282Z,4.70
2022-07-31T08:54:01.291Z,5.20
2022-07-31T08:55:01.274Z,4.60
2022-07-31T08:56:01.248Z,5.70
2022-07-31T08:57:01.353Z,4.60
2022-07-31T08:58:01.235Z,4.80
2022-07-31T08:59:01.224Z,4.70
2022-07-31T09:00:01.209Z,8.20
2022-07-31T09:01:01.234Z,7.50
2022-07-31T09:02:01.378Z,4.60
2022-07-31T09:03:01.188Z,6.90
2022-07-31T09:04:01.189Z,4.80
2022-07-31T09:05:01.173Z,5.70
2022-07-31T09:06:01.163Z,6.80
2022-07-31T09:07:01.249Z,5.60
2022-07-31T09:08:01.138Z,6.00
2022-07-31T09:09:01.184Z,5.30
2022-07-31T09:10:01.128Z,5.20
2022-07-31T09:11:01.125Z,7.50
2022-07-31T09:12:01.100Z,6.90
2022-07-31T09:13:01.087Z,5.70
2022-07-31T09:14:02.226Z,6.50
2022-07-31T09:15:01.074Z,5.10
2022-07-31T09:16:01.068Z,6.60
2022-07-31T09:17:01.208Z,5.70
2022-07-31T09:18:01.043Z,5.10
2022-07-31T09:19:01.032Z,5.50
2022-07-31T09:20:01.033Z,6.40
2022-07-31T09:21:01.987Z,7.80
2022-07-31T09:22:01.026Z,4.40
2022-07-31T09:23:01.001Z,5.20
2022-07-31T09:24:01.036Z,5.30
2022-07-31T09:25:00.978Z,4.30
2022-07-31T09:26:00.986Z,4.60
2022-07-31T09:27:01.292Z,6.20
2022-07-31T09:28:00.939Z,4.30
2022-07-31T09:29:00.932Z,4.50
2022-07-31T09:30:00.926Z,7.20
2022-07-31T09:31:00.937Z,4.40
2022-07-31T09:32:00.910Z,5.70
2022-07-31T09:33:00.924Z,6.20
2022-07-31T09:34:00.912Z,4.70
2022-07-31T09:35:00.876Z,4.20
2022-07-31T09:36:00.877Z,7.10
2022-07-31T09:37:00.944Z,3.80
2022-07-31T09:38:00.853Z,6.10
2022-07-31T09:39:04.248Z,4.40
2022-07-31T09:40:00.828Z,4.30
2022-07-31T09:41:00.825Z,6.00
2022-07-31T09:42:16.418Z,4.50
2022-07-31T09:43:03.013Z,8.80
2022-07-31T09:44:00.822Z,4.70
2022-07-31T09:45:00.782Z,5.00
2022-07-31T09:46:00.777Z,5.70
2022-07-31T09:47:00.761Z,4.80
2022-07-31T09:48:00.759Z,4.70
2022-07-31T09:49:00.794Z,5.70
2022-07-31T09:50:00.758Z,6.00
2022-07-31T09:51:00.736Z,4.10
2022-07-31T09:52:00.716Z,5.10
2022-07-31T09:53:01.728Z,5.70
2022-07-31T09:54:00.705Z,4.30
2022-07-31T09:55:00.698Z,5.10
2022-07-31T09:56:00.682Z,4.10
2022-07-31T09:57:00.685Z,4.90
2022-07-31T09:58:00.667Z,5.50
2022-07-31T09:59:00.644Z,4.30
2022-07-31T10:00:00.649Z,4.60
2022-07-31T10:01:00.712Z,4.00
2022-07-31T10:02:00.652Z,4.60
2022-07-31T10:03:00.601Z,4.30
2022-07-31T10:04:00.606Z,4.20
2022-07-31T10:05:00.590Z,4.90
2022-07-31T10:06:00.586Z,4.90
2022-07-31T10:07:00.597Z,5.30
2022-07-31T10:08:00.565Z,3.80
2022-07-31T10:09:00.560Z,3.70
2022-07-31T10:10:00.547Z,4.00
2022-07-31T10:11:00.531Z,5.00
2022-07-31T10:12:00.523Z,4.30
2022-07-31T10:13:00.520Z,5.00
2022-07-31T10:14:01.504Z,4.30
2022-07-31T10:15:00.491Z,4.20
2022-07-31T10:16:00.498Z,4.10
2022-07-31T10:17:00.598Z,3.60
2022-07-31T10:18:00.483Z,4.10
2022-07-31T10:19:00.449Z,3.50
2022-07-31T10:20:00.441Z,5.30
2022-07-31T10:21:00.440Z,4.80
2022-07-31T10:22:00.429Z,4.50
2022-07-31T10:23:00.435Z,3.90
2022-07-31T10:24:00.463Z,3.60
2022-07-31T10:25:00.401Z,4.50
2022-07-31T10:26:00.386Z,3.70
2022-07-31T10:27:10.552Z,4.50
2022-07-31T10:28:02.367Z,3.50
2022-07-31T10:29:00.375Z,4.60
2022-07-31T10:30:00.345Z,3.50
2022-07-31T10:31:00.341Z,3.60
2022-07-31T10:32:00.339Z,3.70
2022-07-31T10:33:00.383Z,6.00
2022-07-31T10:34:00.311Z,4.40
2022-07-31T10:35:00.301Z,3.30
2022-07-31T10:36:00.286Z,4.10
2022-07-31T10:37:00.287Z,3.80
2022-07-31T10:38:00.322Z,4.00
2022-07-31T10:39:00.268Z,3.70
2022-07-31T10:40:00.248Z,3.60
2022-07-31T10:41:00.245Z,3.30
2022-07-31T10:42:00.232Z,3.80
2022-07-31T10:43:00.222Z,4.40
2022-07-31T10:44:00.224Z,5.40
2022-07-31T10:45:00.224Z,3.50
2022-07-31T10:46:00.207Z,3.80
2022-07-31T10:47:00.187Z,2.90
2022-07-31T10:48:00.188Z,3.40
2022-07-31T10:49:00.346Z,5.20
2022-07-31T10:50:01.163Z,4.90
2022-07-31T10:51:00.155Z,3.70
2022-07-31T10:52:00.140Z,4.60
2022-07-31T10:53:00.744Z,4.00
2022-07-31T10:54:00.141Z,3.30
2022-07-31T10:55:00.158Z,3.50
2022-07-31T10:56:00.109Z,3.30
2022-07-31T10:57:00.107Z,4.20
2022-07-31T10:58:00.101Z,3.70
2022-07-31T10:59:00.100Z,3.70
2022-07-31T11:00:00.061Z,2.60
2022-07-31T11:01:00.070Z,3.50
2022-07-31T11:02:00.096Z,2.80
2022-07-31T11:03:00.068Z,2.60
2022-07-31T11:04:00.033Z,3.70
2022-07-31T11:05:00.028Z,4.80
2022-07-31T11:06:01.051Z,3.10
2022-07-31T11:06:59.999Z,2.70
2022-07-31T11:08:00.014Z,3.00
2022-07-31T11:09:00.014Z,3.30
2022-07-31T11:09:59.991Z,2.80
2022-07-31T11:10:59.966Z,3.10
2022-07-31T11:11:59.950Z,4.10
2022-07-31T11:12:59.947Z,2.30
2022-07-31T11:13:59.940Z,3.40
2022-07-31T11:14:59.945Z,2.40
2022-07-31T11:15:59.927Z,2.90
2022-07-31T11:16:59.912Z,3.60
2022-07-31T11:18:22.027Z,4.10
2022-07-31T11:19:00.894Z,3.80
2022-07-31T11:19:59.886Z,3.50
2022-07-31T11:20:59.891Z,2.40
2022-07-31T11:21:59.881Z,3.00
2022-07-31T11:23:00.856Z,2.80
2022-07-31T11:24:03.328Z,2.60
2022-07-31T11:24:59.830Z,5.30
2022-07-31T11:25:59.812Z,2.60
2022-07-31T11:26:59.826Z,2.70
2022-07-31T11:27:59.798Z,3.20
2022-07-31T11:28:59.807Z,2.10
2022-07-31T11:30:04.767Z,3.00
2022-07-31T11:31:01.794Z,2.10
2022-07-31T11:31:59.787Z,2.90
2022-07-31T11:32:59.750Z,2.20
2022-07-31T11:33:59.746Z,3.10
2022-07-31T11:34:59.723Z,3.80
2022-07-31T11:35:59.727Z,3.60
2022-07-31T11:36:59.744Z,3.10
2022-07-31T11:37:59.865Z,3.20
2022-07-31T11:38:59.697Z,2.60
2022-07-31T11:39:59.697Z,5.70
2022-07-31T11:40:59.673Z,3.60
2022-07-31T11:41:59.670Z,2.00
2022-07-31T11:43:26.619Z,2.00
2022-07-31T11:44:01.646Z,4.60
2022-07-31T11:44:59.640Z,2.80
2022-07-31T11:45:59.641Z,3.00
2022-07-31T11:46:59.618Z,2.40
2022-07-31T11:48:11.003Z,2.20
2022-07-31T11:48:59.645Z,2.30
2022-07-31T11:49:59.609Z,2.00
2022-07-31T11:50:59.590Z,2.50
2022-07-31T11:51:59.575Z,3.40
2022-07-31T11:52:59.584Z,2.60
2022-07-31T11:53:59.563Z,2.20
2022-07-31T11:54:59.551Z,2.10
2022-07-31T11:55:59.540Z,2.40
2022-07-31T11:56:59.524Z,3.60
2022-07-31T11:57:59.545Z,2.40
2022-07-31T11:58:59.502Z,1.80
2022-07-31T11:59:59.498Z,1.70
2022-07-31T12:00:59.497Z,2.40
2022-07-31T12:01:59.482Z,4.20
2022-07-31T12:02:59.535Z,3.60
2022-07-31T12:04:04.700Z,2.60
2022-07-31T12:05:00.441Z,1.90
2022-07-31T12:05:59.455Z,3.90
2022-07-31T12:06:59.445Z,2.00
2022-07-31T12:07:59.421Z,2.20
2022-07-31T12:08:59.412Z,2.20
2022-07-31T12:10:02.425Z,2.10
2022-07-31T12:10:59.419Z,2.70
2022-07-31T12:11:59.390Z,1.80
2022-07-31T12:12:59.379Z,1.90
2022-07-31T12:13:59.456Z,4.60
2022-07-31T12:14:59.359Z,2.90
2022-07-31T12:15:59.548Z,2.50
2022-07-31T12:16:59.336Z,3.30
2022-07-31T12:17:59.322Z,3.70
2022-07-31T12:18:59.462Z,2.40
2022-07-31T12:19:59.294Z,1.90
2022-07-31T12:21:31.217Z,2.00
2022-07-31T12:21:59.287Z,3.00
2022-07-31T12:22:59.274Z,2.70
2022-07-31T12:23:59.278Z,4.30
2022-07-31T12:24:59.254Z,4.40
2022-07-31T12:25:59.249Z,2.20
2022-07-31T12:26:59.265Z,2.50
2022-07-31T12:27:59.229Z,3.40
2022-07-31T12:28:59.232Z,3.20
2022-07-31T12:29:59.206Z,2.90
2022-07-31T12:30:59.230Z,2.50
2022-07-31T12:31:59.216Z,2.20
2022-07-31T12:32:59.181Z,3.60
2022-07-31T12:33:59.191Z,2.20
2022-07-31T12:34:59.155Z,2.90
2022-07-31T12:35:59.151Z,2.20
2022-07-31T12:36:59.172Z,2.20
2022-07-31T12:37:59.137Z,3.30
2022-07-31T12:38:59.118Z,4.20
2022-07-31T12:40:00.945Z,2.10
2022-07-31T12:40:59.112Z,2.60
2022-07-31T12:41:59.118Z,1.70
2022-07-31T12:42:59.090Z,1.70
2022-07-31T12:43:59.098Z,2.50
2022-07-31T12:44:59.067Z,1.60
2022-07-31T12:45:59.064Z,2.60
2022-07-31T12:46:59.060Z,2.80
2022-07-31T12:47:59.056Z,2.50
2022-07-31T12:48:59.074Z,4.20
2022-07-31T12:49:59.022Z,2.20
2022-07-31T12:50:59.014Z,3.10
2022-07-31T12:51:59.014Z,2.20
2022-07-31T12:52:58.989Z,3.00
2022-07-31T12:53:58.985Z,2.40
2022-07-31T12:54:58.970Z,2.10
2022-07-31T12:55:58.958Z,1.60
2022-07-31T12:56:58.971Z,1.50
2022-07-31T12:57:58.937Z,2.40
2022-07-31T12:58:58.932Z,1.80
2022-07-31T12:59:58.943Z,2.20
2022-07-31T13:00:58.935Z,1.60
2022-07-31T13:01:58.955Z,3.20
2022-07-31T13:02:58.897Z,2.20
2022-07-31T13:03:58.890Z,2.80
2022-07-31T13:04:58.885Z,2.00
2022-07-31T13:05:58.873Z,3.20
2022-07-31T13:06:58.865Z,2.60
2022-07-31T13:07:58.894Z,2.20
2022-07-31T13:08:58.833Z,2.80
2022-07-31T13:10:19.758Z,2.40
2022-07-31T13:10:59.816Z,1.70